Time,TemperatureF,DewpointF,PressureIn,WindDirection,WindDirectionDegrees,WindSpeedMPH,WindSpeedGustMPH,Humidity,HourlyPrecipIn,Conditions,Clouds,dailyrainin,SoftwareType,DateUTC
2013-02-15 00:00:00,27.8,22.4,29.92,West,269,0.0,0.0,80,0.00,,,0.00,Wunderground v.1.15,2013-02-15 05:00:00,
2013-02-15 00:05:00,27.6,22.2,29.92,West,269,0.0,0.0,80,0.00,,,0.00,Wunderground v.1.15,2013-02-15 05:05:00,
2013-02-15 00:10:00,27.6,22.2,29.92,West,269,0.0,0.0,80,0.00,,,0.00,Wunderground v.1.15,2013-02-15 05:10:00,
2013-02-15 00:15:00,27.5,22.1,29.92,West,269,0.0,0.0,80,0.00,,,0.00,Wunderground v.1.15,2013-02-15 05:15:00,
2013-02-15 00:20:00,27.2,22.1,29.92,West,269,0.0,0.0,81,0.00,,,0.00,Wunderground v.1.15,2013-02-15 05:20:00,
2013-02-15 00:30:00,26.9,22.1,29.92,West,269,0.0,0.0,82,0.00,,,0.00,Wunderground v.1.15,2013-02-15 05:30:00,
2013-02-15 00:35:00,26.7,21.9,29.92,West,269,0.0,0.0,82,0.00,,,0.00,Wunderground v.1.15,2013-02-15 05:35:00,
2013-02-15 00:45:00,26.6,22.1,29.92,West,269,0.0,0.0,83,0.00,,,0.00,Wunderground v.1.15,2013-02-15 05:45:00,
2013-02-15 00:50:00,26.4,22.2,29.92,West,269,0.0,0.0,84,0.00,,,0.00,Wunderground v.1.15,2013-02-15 05:50:00,
2013-02-15 01:00:00,26.3,22.4,29.92,West,269,0.0,0.0,85,0.00,,,0.00,Wunderground v.1.15,2013-02-15 06:00:00,
2013-02-15 01:05:00,26.1,22.2,29.92,West,269,0.0,0.0,85,0.00,,,0.00,Wunderground v.1.15,2013-02-15 06:05:00,
2013-02-15 01:15:00,26.0,22.1,29.92,West,269,0.0,0.0,85,0.00,,,0.00,Wunderground v.1.15,2013-02-15 06:15:00,
2013-02-15 01:20:00,25.8,21.9,29.92,West,269,0.0,0.0,85,0.00,,,0.00,Wunderground v.1.15,2013-02-15 06:20:00,
2013-02-15 01:30:00,25.7,22.1,29.92,West,269,0.0,0.0,86,0.00,,,0.00,Wunderground v.1.15,2013-02-15 06:30:00,
2013-02-15 01:35:00,25.6,22.0,29.92,West,269,0.0,0.0,86,0.00,,,0.00,Wunderground v.1.15,2013-02-15 06:35:00,
2013-02-15 01:45:00,25.3,22.0,29.92,West,269,0.0,0.0,87,0.00,,,0.00,Wunderground v.1.15,2013-02-15 06:45:00,
2013-02-15 01:50:00,25.3,22.0,29.92,West,269,0.0,0.0,87,0.00,,,0.00,Wunderground v.1.15,2013-02-15 06:50:00,
2013-02-15 02:00:00,25.3,22.2,29.92,West,269,0.0,0.0,88,0.00,,,0.00,Wunderground v.1.15,2013-02-15 07:00:00,
2013-02-15 02:05:00,25.3,22.2,29.92,West,269,0.0,0.0,88,0.00,,,0.00,Wunderground v.1.15,2013-02-15 07:05:00,
2013-02-15 02:15:00,25.3,22.2,29.92,West,269,0.0,0.0,88,0.00,,,0.00,Wunderground v.1.15,2013-02-15 07:15:00,
2013-02-15 02:20:00,25.3,22.5,29.92,West,269,0.0,0.0,89,0.00,,,0.00,Wunderground v.1.15,2013-02-15 07:20:00,
2013-02-15 02:30:00,25.3,22.5,29.92,West,269,0.0,0.0,89,0.00,,,0.00,Wunderground v.1.15,2013-02-15 07:30:00,
2013-02-15 02:35:00,25.1,22.3,29.92,West,269,0.0,0.0,89,0.00,,,0.00,Wunderground v.1.15,2013-02-15 07:35:00,
2013-02-15 02:45:00,25.1,22.6,29.92,West,269,0.0,0.0,90,0.00,,,0.00,Wunderground v.1.15,2013-02-15 07:45:00,
2013-02-15 02:50:00,25.0,22.5,29.92,West,269,0.0,0.0,90,0.00,,,0.00,Wunderground v.1.15,2013-02-15 07:50:00,
2013-02-15 03:00:00,25.4,23.1,29.92,West,269,0.0,0.0,91,0.00,,,0.00,Wunderground v.1.15,2013-02-15 08:00:00,
2013-02-15 03:05:00,25.7,23.4,29.92,West,269,0.0,0.0,91,0.00,,,0.00,Wunderground v.1.15,2013-02-15 08:05:00,
2013-02-15 03:10:00,25.8,23.8,29.92,West,269,0.0,0.0,92,0.00,,,0.00,Wunderground v.1.15,2013-02-15 08:10:00,
2013-02-15 03:20:00,26.7,24.9,29.91,West,269,1.0,1.0,93,0.00,,,0.00,Wunderground v.1.15,2013-02-15 08:20:00,
2013-02-15 03:25:00,27.0,25.2,29.91,West,269,0.0,1.0,93,0.00,,,0.00,Wunderground v.1.15,2013-02-15 08:25:00,
2013-02-15 03:35:00,27.8,26.3,29.91,West,269,0.0,0.0,94,0.00,,,0.00,Wunderground v.1.15,2013-02-15 08:35:00,
2013-02-15 03:40:00,28.1,26.6,29.91,West,269,0.0,2.0,94,0.00,,,0.00,Wunderground v.1.15,2013-02-15 08:40:00,
2013-02-15 03:50:00,28.4,26.9,29.91,West,269,1.0,1.0,94,0.00,,,0.00,Wunderground v.1.15,2013-02-15 08:50:00,
2013-02-15 03:55:00,28.1,26.6,29.91,West,269,0.0,1.0,94,0.00,,,0.00,Wunderground v.1.15,2013-02-15 08:55:00,
2013-02-15 04:05:00,28.2,26.7,29.91,West,269,0.0,0.0,94,0.00,,,0.00,Wunderground v.1.15,2013-02-15 09:05:00,
2013-02-15 04:10:00,28.4,26.9,29.91,West,269,0.0,0.0,94,0.00,,,0.00,Wunderground v.1.15,2013-02-15 09:10:00,
2013-02-15 04:20:00,28.5,27.3,29.91,West,269,0.0,0.0,95,0.00,,,0.00,Wunderground v.1.15,2013-02-15 09:20:00,
2013-02-15 04:25:00,28.7,27.4,29.91,West,269,0.0,0.0,95,0.00,,,0.00,Wunderground v.1.15,2013-02-15 09:25:00,
2013-02-15 04:35:00,29.0,27.7,29.91,West,269,0.0,0.0,95,0.00,,,0.00,Wunderground v.1.15,2013-02-15 09:35:00,
2013-02-15 04:40:00,29.0,27.7,29.91,West,269,0.0,0.0,95,0.00,,,0.00,Wunderground v.1.15,2013-02-15 09:40:00,
2013-02-15 04:45:00,29.1,27.8,29.92,West,269,0.0,0.0,95,0.00,,,0.00,Wunderground v.1.15,2013-02-15 09:45:00,
2013-02-15 04:55:00,29.3,28.0,29.92,West,269,0.0,0.0,95,0.00,,,0.00,Wunderground v.1.15,2013-02-15 09:55:00,
2013-02-15 05:00:00,29.5,28.2,29.91,West,269,0.0,0.0,95,0.00,,,0.00,Wunderground v.1.15,2013-02-15 10:00:00,
2013-02-15 05:10:00,29.7,28.4,29.91,West,269,0.0,1.0,95,0.00,,,0.00,Wunderground v.1.15,2013-02-15 10:10:00,
2013-02-15 05:15:00,29.8,28.5,29.92,West,269,0.0,1.0,95,0.00,,,0.00,Wunderground v.1.15,2013-02-15 10:15:00,
2013-02-15 05:25:00,29.8,28.5,29.92,West,269,0.0,0.0,95,0.00,,,0.00,Wunderground v.1.15,2013-02-15 10:25:00,
2013-02-15 05:30:00,30.0,28.7,29.92,West,269,0.0,0.0,95,0.00,,,0.00,Wunderground v.1.15,2013-02-15 10:30:00,
2013-02-15 05:35:00,30.0,28.7,29.92,West,269,0.0,0.0,95,0.00,,,0.00,Wunderground v.1.15,2013-02-15 10:35:00,
2013-02-15 05:45:00,30.0,28.7,29.92,West,269,0.0,0.0,95,0.00,,,0.00,Wunderground v.1.15,2013-02-15 10:45:00,
2013-02-15 05:50:00,30.3,29.3,29.92,West,269,0.0,0.0,96,0.00,,,0.00,Wunderground v.1.15,2013-02-15 10:50:00,
2013-02-15 06:00:00,30.4,29.4,29.92,SSW,198,1.0,1.0,96,0.00,,,0.00,Wunderground v.1.15,2013-02-15 11:00:00,
2013-02-15 06:10:00,30.4,29.4,29.92,SW,219,0.0,0.0,96,0.00,,,0.00,Wunderground v.1.15,2013-02-15 11:10:00,
2013-02-15 06:15:00,30.4,29.4,29.93,SW,219,0.0,0.0,96,0.00,,,0.00,Wunderground v.1.15,2013-02-15 11:15:00,
2013-02-15 06:20:00,30.4,29.4,29.93,SW,236,0.0,0.0,96,0.00,,,0.00,Wunderground v.1.15,2013-02-15 11:20:00,
2013-02-15 06:30:00,30.4,29.4,29.93,WSW,246,1.0,2.0,96,0.00,,,0.00,Wunderground v.1.15,2013-02-15 11:30:00,
2013-02-15 06:35:00,30.4,29.4,29.93,WSW,246,1.0,2.0,96,0.00,,,0.00,Wunderground v.1.15,2013-02-15 11:35:00,
2013-02-15 06:45:00,30.3,29.3,29.93,WSW,246,0.0,1.0,96,0.00,,,0.00,Wunderground v.1.15,2013-02-15 11:45:00,
2013-02-15 06:50:00,30.1,29.1,29.93,WSW,246,0.0,0.0,96,0.00,,,0.00,Wunderground v.1.15,2013-02-15 11:50:00,
2013-02-15 07:00:00,30.1,28.8,29.92,WSW,246,0.0,0.0,95,0.00,,,0.00,Wunderground v.1.15,2013-02-15 12:00:00,
2013-02-15 07:05:00,30.0,28.7,29.92,WSW,246,0.0,0.0,95,0.00,,,0.00,Wunderground v.1.15,2013-02-15 12:05:00,
2013-02-15 07:15:00,29.8,28.5,29.93,WSW,246,0.0,0.0,95,0.00,,,0.00,Wunderground v.1.15,2013-02-15 12:15:00,
2013-02-15 07:20:00,29.8,28.5,29.93,WSW,246,0.0,0.0,95,0.00,,,0.00,Wunderground v.1.15,2013-02-15 12:20:00,
2013-02-15 07:30:00,29.8,28.5,29.93,West,261,0.0,0.0,95,0.00,,,0.00,Wunderground v.1.15,2013-02-15 12:30:00,
2013-02-15 07:35:00,29.8,28.5,29.93,West,261,0.0,0.0,95,0.00,,,0.00,Wunderground v.1.15,2013-02-15 12:35:00,
2013-02-15 07:45:00,30.1,28.8,29.93,NW,315,0.0,0.0,95,0.00,,,0.00,Wunderground v.1.15,2013-02-15 12:45:00,
2013-02-15 07:50:00,30.3,29.3,29.93,WNW,290,0.0,1.0,96,0.00,,,0.00,Wunderground v.1.15,2013-02-15 12:50:00,
2013-02-15 07:55:00,30.4,29.4,29.93,WNW,290,0.0,1.0,96,0.00,,,0.00,Wunderground v.1.15,2013-02-15 12:55:00,
2013-02-15 08:05:00,30.9,29.9,29.93,WNW,290,0.0,1.0,96,0.00,,,0.00,Wunderground v.1.15,2013-02-15 13:05:00,
2013-02-15 08:10:00,31.3,30.3,29.93,NW,322,0.0,0.0,96,0.00,,,0.00,Wunderground v.1.15,2013-02-15 13:10:00,
2013-02-15 08:20:00,31.9,30.6,29.93,NNW,329,1.0,1.0,95,0.00,,,0.00,Wunderground v.1.15,2013-02-15 13:20:00,
2013-02-15 08:25:00,32.1,30.8,29.93,West,279,0.0,1.0,95,0.00,,,0.00,Wunderground v.1.15,2013-02-15 13:25:00,
2013-02-15 08:35:00,32.5,30.7,29.94,WSW,242,1.0,1.0,93,0.00,,,0.00,Wunderground v.1.15,2013-02-15 13:35:00,
2013-02-15 08:40:00,32.7,30.6,29.94,West,265,1.0,1.0,92,0.00,,,0.00,Wunderground v.1.15,2013-02-15 13:40:00,
2013-02-15 08:50:00,33.4,30.5,29.93,WSW,244,1.0,1.0,89,0.00,,,0.00,Wunderground v.1.15,2013-02-15 13:50:00,
2013-02-15 08:55:00,33.8,30.6,29.93,SSW,211,1.0,1.0,88,0.00,,,0.00,Wunderground v.1.15,2013-02-15 13:55:00,
2013-02-15 09:05:00,34.7,30.7,29.93,SSE,159,1.0,2.0,85,0.00,,,0.00,Wunderground v.1.15,2013-02-15 14:05:00,
2013-02-15 09:10:00,35.0,30.1,29.93,SW,229,1.0,1.0,82,0.00,,,0.00,Wunderground v.1.15,2013-02-15 14:10:00,
2013-02-15 09:20:00,35.9,30.3,29.93,WSW,240,1.0,1.0,80,0.00,,,0.00,Wunderground v.1.15,2013-02-15 14:20:00,
2013-02-15 09:25:00,36.3,30.1,29.93,SW,227,1.0,1.0,78,0.00,,,0.00,Wunderground v.1.15,2013-02-15 14:25:00,
2013-02-15 09:30:00,36.9,30.4,29.93,WSW,240,1.0,3.0,77,0.00,,,0.00,Wunderground v.1.15,2013-02-15 14:30:00,
2013-02-15 09:40:00,37.9,30.7,29.93,West,273,1.0,3.0,75,0.00,,,0.00,Wunderground v.1.15,2013-02-15 14:40:00,
2013-02-15 09:45:00,38.3,30.7,29.93,SSW,203,1.0,3.0,74,0.00,,,0.00,Wunderground v.1.15,2013-02-15 14:45:00,
2013-02-15 09:50:00,38.8,30.9,29.93,SW,215,1.0,5.0,73,0.00,,,0.00,Wunderground v.1.15,2013-02-15 14:50:00,
2013-02-15 10:00:00,39.8,31.2,29.92,SW,221,2.0,2.0,71,0.00,,,0.00,Wunderground v.1.15,2013-02-15 15:00:00,
2013-02-15 10:05:00,40.2,30.8,29.92,SSW,212,4.0,4.0,69,0.00,,,0.00,Wunderground v.1.15,2013-02-15 15:05:00,
2013-02-15 10:15:00,40.6,31.2,29.92,WNW,285,2.0,3.0,69,0.00,,,0.00,Wunderground v.1.15,2013-02-15 15:15:00,
2013-02-15 10:25:00,41.2,31.4,29.92,WSW,252,2.0,3.0,68,0.00,,,0.00,Wunderground v.1.15,2013-02-15 15:25:00,
2013-02-15 10:30:00,41.3,31.5,29.93,SSW,200,2.0,2.0,68,0.00,,,0.00,Wunderground v.1.15,2013-02-15 15:30:00,
2013-02-15 10:35:00,41.5,31.7,29.93,South,171,2.0,2.0,68,0.00,,,0.00,Wunderground v.1.15,2013-02-15 15:35:00,
2013-02-15 10:45:00,41.9,31.7,29.92,SW,218,3.0,6.0,67,0.00,,,0.00,Wunderground v.1.15,2013-02-15 15:45:00,
2013-02-15 10:50:00,41.9,31.7,29.92,South,171,3.0,3.0,67,0.00,,,0.00,Wunderground v.1.15,2013-02-15 15:50:00,
2013-02-15 11:00:00,42.1,31.9,29.92,South,188,2.0,2.0,67,0.00,,,0.00,Wunderground v.1.15,2013-02-15 16:00:00,
2013-02-15 11:05:00,42.3,32.1,29.92,SSE,157,1.0,2.0,67,0.00,,,0.00,Wunderground v.1.15,2013-02-15 16:05:00,
2013-02-15 11:15:00,42.6,32.4,29.91,West,263,1.0,1.0,67,0.00,,,0.00,Wunderground v.1.15,2013-02-15 16:15:00,
2013-02-15 11:20:00,42.8,32.2,29.91,SSW,196,1.0,1.0,66,0.00,,,0.00,Wunderground v.1.15,2013-02-15 16:20:00,
2013-02-15 11:30:00,42.9,32.3,29.91,SSW,213,2.0,2.0,66,0.00,,,0.00,Wunderground v.1.15,2013-02-15 16:30:00,
2013-02-15 11:35:00,43.1,32.5,29.91,WSW,246,1.0,2.0,66,0.00,,,0.00,Wunderground v.1.15,2013-02-15 16:35:00,
2013-02-15 11:45:00,43.5,32.1,29.90,SSW,192,3.0,3.0,64,0.00,,,0.00,Wunderground v.1.15,2013-02-15 16:45:00,
2013-02-15 11:55:00,43.6,32.6,29.90,SW,221,2.0,3.0,65,0.00,,,0.00,Wunderground v.1.15,2013-02-15 16:55:00,
2013-02-15 12:00:00,43.9,32.5,29.89,WSW,239,2.0,2.0,64,0.00,,,0.00,Wunderground v.1.15,2013-02-15 17:00:00,
2013-02-15 12:05:00,44.3,32.5,29.89,SW,216,3.0,6.0,63,0.00,,,0.00,Wunderground v.1.15,2013-02-15 17:05:00,
2013-02-15 12:15:00,44.8,32.6,29.89,SSE,160,3.0,3.0,62,0.00,,,0.00,Wunderground v.1.15,2013-02-15 17:15:00,
2013-02-15 12:20:00,44.8,32.6,29.89,West,269,2.0,2.0,62,0.00,,,0.00,Wunderground v.1.15,2013-02-15 17:20:00,
2013-02-15 12:30:00,44.9,32.7,29.88,South,182,2.0,2.0,62,0.00,,,0.00,Wunderground v.1.15,2013-02-15 17:30:00,
2013-02-15 12:35:00,44.9,32.7,29.88,SSW,207,2.0,3.0,62,0.00,,,0.00,Wunderground v.1.15,2013-02-15 17:35:00,
2013-02-15 12:45:00,45.7,32.6,29.87,South,175,2.0,2.0,60,0.00,,,0.00,Wunderground v.1.15,2013-02-15 17:45:00,
2013-02-15 12:50:00,46.2,32.2,29.87,SSW,211,3.0,3.0,58,0.00,,,0.00,Wunderground v.1.15,2013-02-15 17:50:00,
2013-02-15 13:00:00,47.0,31.7,29.87,SSW,209,3.0,3.0,55,0.00,,,0.00,Wunderground v.1.15,2013-02-15 18:00:00,
2013-02-15 13:05:00,47.3,32.4,29.87,SSE,161,3.0,3.0,56,0.00,,,0.00,Wunderground v.1.15,2013-02-15 18:05:00,
2013-02-15 13:15:00,47.7,32.3,29.86,SW,224,1.0,3.0,55,0.00,,,0.00,Wunderground v.1.15,2013-02-15 18:15:00,
2013-02-15 13:20:00,47.6,32.7,29.86,SSE,157,2.0,2.0,56,0.00,,,0.00,Wunderground v.1.15,2013-02-15 18:20:00,
2013-02-15 13:30:00,47.9,32.5,29.86,SSW,210,2.0,2.0,55,0.00,,,0.00,Wunderground v.1.15,2013-02-15 18:30:00,
2013-02-15 13:35:00,48.0,32.1,29.86,South,191,2.0,4.0,54,0.00,,,0.00,Wunderground v.1.15,2013-02-15 18:35:00,
2013-02-15 13:45:00,48.8,31.9,29.86,SW,215,3.0,3.0,52,0.00,,,0.00,Wunderground v.1.15,2013-02-15 18:45:00,
2013-02-15 13:50:00,49.1,31.7,29.86,SW,224,2.0,2.0,51,0.00,,,0.00,Wunderground v.1.15,2013-02-15 18:50:00,
2013-02-15 14:00:00,49.8,31.9,29.85,ESE,111,1.0,1.0,50,0.00,,,0.00,Wunderground v.1.15,2013-02-15 19:00:00,
2013-02-15 14:05:00,50.2,32.3,29.85,SW,228,2.0,2.0,50,0.00,,,0.00,Wunderground v.1.15,2013-02-15 19:05:00,
2013-02-15 14:10:00,50.5,32.5,29.85,NW,304,1.0,1.0,50,0.00,,,0.00,Wunderground v.1.15,2013-02-15 19:10:00,
2013-02-15 14:20:00,49.6,32.2,29.85,South,173,3.0,3.0,51,0.00,,,0.00,Wunderground v.1.15,2013-02-15 19:20:00,
2013-02-15 14:25:00,49.2,31.8,29.85,SSW,198,2.0,3.0,51,0.00,,,0.00,Wunderground v.1.15,2013-02-15 19:25:00,
2013-02-15 14:35:00,49.6,31.7,29.85,West,280,2.0,3.0,50,0.00,,,0.00,Wunderground v.1.15,2013-02-15 19:35:00,
2013-02-15 14:40:00,49.6,31.7,29.85,WSW,238,2.0,2.0,50,0.00,,,0.00,Wunderground v.1.15,2013-02-15 19:40:00,
2013-02-15 14:50:00,49.5,31.6,29.85,WSW,239,2.0,2.0,50,0.00,,,0.00,Wunderground v.1.15,2013-02-15 19:50:00,
2013-02-15 14:55:00,49.4,31.5,29.85,West,268,2.0,2.0,50,0.00,,,0.00,Wunderground v.1.15,2013-02-15 19:55:00,
2013-02-15 15:05:00,48.9,31.5,29.84,South,184,3.0,3.0,51,0.00,,,0.00,Wunderground v.1.15,2013-02-15 20:05:00,
2013-02-15 15:15:00,48.9,32.0,29.84,SSE,149,2.0,3.0,52,0.00,,,0.00,Wunderground v.1.15,2013-02-15 20:15:00,
2013-02-15 15:20:00,48.5,32.1,29.84,West,271,2.0,2.0,53,0.00,,,0.00,Wunderground v.1.15,2013-02-15 20:20:00,
2013-02-15 15:25:00,48.3,31.9,29.84,SW,220,2.0,5.0,53,0.00,,,0.00,Wunderground v.1.15,2013-02-15 20:25:00,
2013-02-15 15:35:00,48.3,31.9,29.84,SW,227,3.0,3.0,53,0.00,,,0.00,Wunderground v.1.15,2013-02-15 20:35:00,
2013-02-15 15:45:00,47.9,31.6,29.84,SSE,159,2.0,2.0,53,0.00,,,0.00,Wunderground v.1.15,2013-02-15 20:45:00,
2013-02-15 15:50:00,47.7,30.9,29.84,SW,217,3.0,7.0,52,0.00,,,0.00,Wunderground v.1.15,2013-02-15 20:50:00,
2013-02-15 15:55:00,47.7,30.4,29.84,SSW,198,4.0,7.0,51,0.00,,,0.00,Wunderground v.1.15,2013-02-15 20:55:00,
2013-02-15 16:05:00,47.1,30.8,29.84,WSW,240,3.0,4.0,53,0.00,,,0.00,Wunderground v.1.15,2013-02-15 21:05:00,
2013-02-15 16:10:00,46.8,30.6,29.84,West,263,2.0,4.0,53,0.00,,,0.00,Wunderground v.1.15,2013-02-15 21:10:00,
2013-02-15 16:20:00,46.4,31.1,29.84,SSW,210,2.0,5.0,55,0.00,,,0.00,Wunderground v.1.15,2013-02-15 21:20:00,
2013-02-15 16:25:00,46.2,30.5,29.84,SW,234,2.0,5.0,54,0.00,,,0.00,Wunderground v.1.15,2013-02-15 21:25:00,
2013-02-15 16:35:00,46.0,30.7,29.84,WSW,244,1.0,2.0,55,0.00,,,0.00,Wunderground v.1.15,2013-02-15 21:35:00,
2013-02-15 16:40:00,45.4,30.6,29.84,SSW,199,1.0,1.0,56,0.00,,,0.00,Wunderground v.1.15,2013-02-15 21:40:00,
2013-02-15 16:50:00,44.5,30.6,29.84,SW,232,1.0,1.0,58,0.00,,,0.00,Wunderground v.1.15,2013-02-15 21:50:00,
2013-02-15 17:00:00,43.9,30.1,29.84,SW,225,1.0,1.0,58,0.00,,,0.00,Wunderground v.1.15,2013-02-15 22:00:00,
2013-02-15 17:05:00,43.8,30.0,29.84,South,186,1.0,1.0,58,0.00,,,0.00,Wunderground v.1.15,2013-02-15 22:05:00,
2013-02-15 17:10:00,43.5,30.1,29.84,West,261,1.0,1.0,59,0.00,,,0.00,Wunderground v.1.15,2013-02-15 22:10:00,
2013-02-15 17:20:00,42.8,30.3,29.84,WSW,254,0.0,0.0,61,0.00,,,0.00,Wunderground v.1.15,2013-02-15 22:20:00,
2013-02-15 17:25:00,42.3,29.8,29.84,WSW,254,0.0,0.0,61,0.00,,,0.00,Wunderground v.1.15,2013-02-15 22:25:00,
2013-02-15 17:35:00,41.5,30.2,29.85,WSW,254,0.0,0.0,64,0.00,,,0.00,Wunderground v.1.15,2013-02-15 22:35:00,
2013-02-15 17:40:00,41.2,29.9,29.85,WSW,254,0.0,0.0,64,0.00,,,0.00,Wunderground v.1.15,2013-02-15 22:40:00,
2013-02-15 17:45:00,41.1,30.2,29.86,WSW,254,0.0,0.0,65,0.00,,,0.00,Wunderground v.1.15,2013-02-15 22:45:00,
2013-02-15 17:55:00,40.5,30.0,29.86,WSW,254,0.0,0.0,66,0.00,,,0.00,Wunderground v.1.15,2013-02-15 22:55:00,
2013-02-15 18:00:00,40.2,30.1,29.86,NNW,334,0.0,0.0,67,0.00,,,0.00,Wunderground v.1.15,2013-02-15 23:00:00,
2013-02-15 18:10:00,39.6,29.9,29.86,NNW,334,0.0,0.0,68,0.00,,,0.00,Wunderground v.1.15,2013-02-15 23:10:00,
2013-02-15 18:15:00,39.2,29.9,29.86,NNW,334,0.0,0.0,69,0.00,,,0.00,Wunderground v.1.15,2013-02-15 23:15:00,
2013-02-15 18:25:00,38.8,30.2,29.86,NNW,334,0.0,0.0,71,0.00,,,0.00,Wunderground v.1.15,2013-02-15 23:25:00,
2013-02-15 18:30:00,38.5,29.9,29.87,NNW,334,0.0,0.0,71,0.00,,,0.00,Wunderground v.1.15,2013-02-15 23:30:00,
2013-02-15 18:40:00,37.9,30.0,29.87,NNW,334,0.0,0.0,73,0.00,,,0.00,Wunderground v.1.15,2013-02-15 23:40:00,
2013-02-15 18:50:00,37.8,30.3,29.87,NNW,334,0.0,0.0,74,0.00,,,0.00,Wunderground v.1.15,2013-02-15 23:50:00,
2013-02-15 18:55:00,37.5,30.3,29.87,NNW,334,0.0,0.0,75,0.00,,,0.00,Wunderground v.1.15,2013-02-15 23:55:00,
2013-02-15 19:00:00,37.5,30.3,29.87,NNW,334,0.0,0.0,75,0.00,,,0.00,Wunderground v.1.15,2013-02-16 00:00:00,
2013-02-15 19:10:00,37.0,30.1,29.87,NNW,334,0.0,0.0,76,0.00,,,0.00,Wunderground v.1.15,2013-02-16 00:10:00,
2013-02-15 19:15:00,36.9,30.0,29.87,NNW,334,0.0,0.0,76,0.00,,,0.00,Wunderground v.1.15,2013-02-16 00:15:00,
2013-02-15 19:25:00,36.8,30.3,29.87,NNW,334,0.0,0.0,77,0.00,,,0.00,Wunderground v.1.15,2013-02-16 00:25:00,
2013-02-15 19:30:00,36.6,30.1,29.87,NNW,334,0.0,0.0,77,0.00,,,0.00,Wunderground v.1.15,2013-02-16 00:30:00,
2013-02-15 19:40:00,36.5,30.3,29.87,NNW,334,0.0,0.0,78,0.00,,,0.00,Wunderground v.1.15,2013-02-16 00:40:00,
2013-02-15 19:45:00,36.5,30.6,29.87,NNW,334,0.0,0.0,79,0.00,,,0.00,Wunderground v.1.15,2013-02-16 00:45:00,
2013-02-15 19:55:00,36.3,30.4,29.87,NNW,334,0.0,0.0,79,0.00,,,0.00,Wunderground v.1.15,2013-02-16 00:55:00,
2013-02-15 20:00:00,36.2,30.3,29.87,NNW,334,0.0,0.0,79,0.00,,,0.00,Wunderground v.1.15,2013-02-16 01:00:00,
2013-02-15 20:10:00,35.8,30.2,29.87,NNW,334,0.0,0.0,80,0.00,,,0.00,Wunderground v.1.15,2013-02-16 01:10:00,
2013-02-15 20:15:00,35.6,30.3,29.87,NNW,334,0.0,0.0,81,0.00,,,0.00,Wunderground v.1.15,2013-02-16 01:15:00,
2013-02-15 20:25:00,35.5,30.5,29.87,NNW,334,0.0,0.0,82,0.00,,,0.00,Wunderground v.1.15,2013-02-16 01:25:00,
2013-02-15 20:30:00,35.3,30.4,29.87,NNW,334,0.0,0.0,82,0.00,,,0.00,Wunderground v.1.15,2013-02-16 01:30:00,
2013-02-15 20:35:00,35.2,30.3,29.87,NNW,334,0.0,0.0,82,0.00,,,0.00,Wunderground v.1.15,2013-02-16 01:35:00,
2013-02-15 20:45:00,35.0,30.4,29.88,NNW,334,0.0,0.0,83,0.00,,,0.00,Wunderground v.1.15,2013-02-16 01:45:00,
2013-02-15 20:50:00,34.7,30.1,29.88,NNW,334,0.0,0.0,83,0.00,,,0.00,Wunderground v.1.15,2013-02-16 01:50:00,
2013-02-15 21:00:00,34.3,29.7,29.88,NNW,334,1.0,2.0,83,0.00,,,0.00,Wunderground v.1.15,2013-02-16 02:00:00,
2013-02-15 21:05:00,33.8,29.5,29.88,NNW,334,1.0,2.0,84,0.00,,,0.00,Wunderground v.1.15,2013-02-16 02:05:00,
2013-02-15 21:15:00,33.7,29.7,29.89,NNW,334,0.0,1.0,85,0.00,,,0.00,Wunderground v.1.15,2013-02-16 02:15:00,
2013-02-15 21:20:00,33.7,29.7,29.89,NNW,334,0.0,0.0,85,0.00,,,0.00,Wunderground v.1.15,2013-02-16 02:20:00,
2013-02-15 21:30:00,34.1,30.6,29.88,NNW,334,0.0,0.0,87,0.00,,,0.00,Wunderground v.1.15,2013-02-16 02:30:00,
2013-02-15 21:35:00,34.0,30.3,29.88,NNW,334,0.0,0.0,86,0.00,,,0.00,Wunderground v.1.15,2013-02-16 02:35:00,
2013-02-15 21:45:00,33.8,30.3,29.87,NNW,334,0.0,0.0,87,0.00,,,0.00,Wunderground v.1.15,2013-02-16 02:45:00,
2013-02-15 21:50:00,33.7,30.2,29.87,NNW,334,0.0,0.0,87,0.00,,,0.00,Wunderground v.1.15,2013-02-16 02:50:00,
2013-02-15 22:00:00,33.5,30.0,29.87,NNW,334,0.0,0.0,87,0.00,,,0.00,Wunderground v.1.15,2013-02-16 03:00:00,
2013-02-15 22:05:00,33.4,30.2,29.87,NNW,334,0.0,0.0,88,0.00,,,0.00,Wunderground v.1.15,2013-02-16 03:05:00,
2013-02-15 22:15:00,32.9,29.7,29.87,NNW,334,0.0,0.0,88,0.00,,,0.00,Wunderground v.1.15,2013-02-16 03:15:00,
2013-02-15 22:20:00,32.5,29.1,29.87,NNW,334,0.0,0.0,87,0.00,,,0.00,Wunderground v.1.15,2013-02-16 03:20:00,
2013-02-15 22:30:00,31.9,28.8,29.87,NNW,334,0.0,0.0,88,0.00,,,0.00,Wunderground v.1.15,2013-02-16 03:30:00,
2013-02-15 22:35:00,31.6,28.5,29.87,NNW,334,0.0,0.0,88,0.00,,,0.00,Wunderground v.1.15,2013-02-16 03:35:00,
2013-02-15 22:45:00,31.3,28.4,29.87,NNW,334,0.0,0.0,89,0.00,,,0.00,Wunderground v.1.15,2013-02-16 03:45:00,
2013-02-15 22:50:00,31.2,28.6,29.87,NNW,334,0.0,0.0,90,0.00,,,0.00,Wunderground v.1.15,2013-02-16 03:50:00,
2013-02-15 23:00:00,30.9,28.3,29.87,NNW,334,0.0,0.0,90,0.00,,,0.00,Wunderground v.1.15,2013-02-16 04:00:00,
2013-02-15 23:05:00,30.7,28.1,29.87,NNW,334,0.0,0.0,90,0.00,,,0.00,Wunderground v.1.15,2013-02-16 04:05:00,
2013-02-15 23:15:00,30.6,28.3,29.86,NNW,334,0.0,0.0,91,0.00,,,0.00,Wunderground v.1.15,2013-02-16 04:15:00,
2013-02-15 23:20:00,30.4,28.1,29.86,NNW,334,0.0,0.0,91,0.00,,,0.00,Wunderground v.1.15,2013-02-16 04:20:00,
2013-02-15 23:25:00,30.3,28.0,29.86,NNW,334,0.0,0.0,91,0.00,,,0.00,Wunderground v.1.15,2013-02-16 04:25:00,
2013-02-15 23:35:00,29.7,27.4,29.86,NNW,334,0.0,0.0,91,0.00,,,0.00,Wunderground v.1.15,2013-02-16 04:35:00,
2013-02-15 23:40:00,29.7,27.4,29.86,NNW,334,0.0,0.0,91,0.00,,,0.00,Wunderground v.1.15,2013-02-16 04:40:00,
2013-02-15 23:50:00,29.7,27.7,29.86,NNW,334,0.0,0.0,92,0.00,,,0.00,Wunderground v.1.15,2013-02-16 04:50:00,
2013-02-15 23:55:00,29.7,27.7,29.86,NNW,334,0.0,0.0,92,0.00,,,0.00,Wunderground v.1.15,2013-02-16 04:55:00,